メインページ
METAR-TAF:

METAR-TAF

空港 :

Fort Nelson, ブリティッシュコロンビア州, カナダ

緯度: 58-50N, 経度: 122-35W, 海抜: 382m

現時点の気象観測

当レポートは1時間4分前の19:00(UTC)に作成
無風
気温 -15°C
湿度 85%
気圧 1016 hPa
視程: 4.8km
高度1000ftの千切れ雲あり
高度5800ftの千切れ雲あり
小雪

METAR: CYYE 211900Z 00000KT 3SM -SN BKN010 BKN058 M15/M17 A3000 RMK SN3SC2SC1 SLP199

時間: 12:04 (20:04 UTC)

予報

当レポートは1時間26分前の18:38(UTC)に作成
予報は21日の 19時(UTC)から 22日の 07時(UTC)まで有効
変向風 3kt
視程: 9.7km
高度2000ftの雲は散在している
高度4000ftの曇り
小雪
21日の 19時(UTC)から 21日の 21時(UTC)まで一時的に
視程: 0.6km
高度800ftの
にわか雪
21日の 2100時(UTC)から
変向風 3kt
視程: 10km
高度3000ftの雲は散在している
高度6000ftの曇り
21日の 21時(UTC)から 21日の 24時(UTC)まで一時的に
視程: 8.0km
高度3000ftの千切れ雲あり
高度8000ftの曇り
小雪
22日の 0000時(UTC)から
変向風 3kt
視程: 10km
高度5000ftの千切れ雲あり
高度20000ftの曇り

TAF: CYYE 211838Z 2119/2207 VRB03KT 6SM -SN SCT020 OVC040 TEMPO 2119/2121 3/8SM SHSN VV008 FM212100 VRB03KT P6SM SCT030 OVC060 TEMPO 2121/2124 5SM -SN BKN030 OVC080 FM220000 VRB03KT P6SM BKN050 OVC200 RMK NXT FCST BY 220100Z

4,000以上の空港の気象観測と天気予報(METAR報とTAF報)

利用可能な観測所は地図上に黄色い丸と赤い丸で示す。

丸の上にカーソルを重ねると観測所名を参照できる。

次にクリックすると気象観測と天気予報を参照できる。

マップの切り替え:黒色「×」印の緑ボタンをクリックして拡大、「-」印の緑ボタンをクリックして縮小、緑色の三角印をクリックして隣りの地図に切り替え


METAR-TAF: